sensor_id;sensor_type;location;lat;lon;timestamp;temperature;humidity
21834;DHT22;11079;51.092;3.458;2023-03-01T00:01:44;1.60;99.90
21834;DHT22;11079;51.092;3.458;2023-03-01T00:04:11;1.60;99.90
21834;DHT22;11079;51.092;3.458;2023-03-01T00:06:38;1.60;99.90
21834;DHT22;11079;51.092;3.458;2023-03-01T00:09:07;1.60;99.90
21834;DHT22;11079;51.092;3.458;2023-03-01T00:11:34;1.60;99.90
21834;DHT22;11079;51.092;3.458;2023-03-01T00:14:02;1.60;99.90
21834;DHT22;11079;51.092;3.458;2023-03-01T00:16:33;1.50;99.90
21834;DHT22;11079;51.092;3.458;2023-03-01T00:19:02;1.40;99.90
21834;DHT22;11079;51.092;3.458;2023-03-01T00:21:34;1.40;99.90
21834;DHT22;11079;51.092;3.458;2023-03-01T00:24:03;1.40;99.90
21834;DHT22;11079;51.092;3.458;2023-03-01T00:26:29;1.50;99.90
21834;DHT22;11079;51.092;3.458;2023-03-01T00:28:58;1.40;99.90
21834;DHT22;11079;51.092;3.458;2023-03-01T00:31:33;1.40;99.90
21834;DHT22;11079;51.092;3.458;2023-03-01T00:34:02;1.40;99.90
21834;DHT22;11079;51.092;3.458;2023-03-01T00:36:34;1.50;99.90
21834;DHT22;11079;51.092;3.458;2023-03-01T00:39:05;1.50;99.90
21834;DHT22;11079;51.092;3.458;2023-03-01T00:41:35;1.60;99.90
21834;DHT22;11079;51.092;3.458;2023-03-01T00:44:00;1.60;99.90
21834;DHT22;11079;51.092;3.458;2023-03-01T00:46:27;1.50;99.90
21834;DHT22;11079;51.092;3.458;2023-03-01T00:48:57;1.50;99.90
21834;DHT22;11079;51.092;3.458;2023-03-01T00:51:26;1.60;99.90
21834;DHT22;11079;51.092;3.458;2023-03-01T00:53:54;1.70;99.90
21834;DHT22;11079;51.092;3.458;2023-03-01T00:56:20;1.80;99.90
21834;DHT22;11079;51.092;3.458;2023-03-01T00:58:46;1.60;99.90
21834;DHT22;11079;51.092;3.458;2023-03-01T01:01:18;1.60;99.90
21834;DHT22;11079;51.092;3.458;2023-03-01T01:03:45;1.70;99.90
21834;DHT22;11079;51.092;3.458;2023-03-01T01:06:17;1.60;99.90
21834;DHT22;11079;51.092;3.458;2023-03-01T01:08:45;1.70;99.90
21834;DHT22;11079;51.092;3.458;2023-03-01T01:11:12;1.70;99.90
21834;DHT22;11079;51.092;3.458;2023-03-01T01:13:39;1.80;99.90
21834;DHT22;11079;51.092;3.458;2023-03-01T01:16:05;1.70;99.90
21834;DHT22;11079;51.092;3.458;2023-03-01T01:18:32;1.80;99.90
21834;DHT22;11079;51.092;3.458;2023-03-01T01:21:07;1.90;99.90
21834;DHT22;11079;51.092;3.458;2023-03-01T01:23:33;1.80;99.90
21834;DHT22;11079;51.092;3.458;2023-03-01T01:26:21;1.90;99.90
21834;DHT22;11079;51.092;3.458;2023-03-01T01:28:47;1.70;99.90
21834;DHT22;11079;51.092;3.458;2023-03-01T01:31:14;1.70;99.90
21834;DHT22;11079;51.092;3.458;2023-03-01T01:33:41;1.70;99.90
21834;DHT22;11079;51.092;3.458;2023-03-01T01:36:07;1.50;99.90
21834;DHT22;11079;51.092;3.458;2023-03-01T01:38:36;1.50;99.90
21834;DHT22;11079;51.092;3.458;2023-03-01T01:41:05;1.60;99.90
21834;DHT22;11079;51.092;3.458;2023-03-01T01:43:34;1.60;99.90
21834;DHT22;11079;51.092;3.458;2023-03-01T01:46:07;1.50;99.90
21834;DHT22;11079;51.092;3.458;2023-03-01T01:49:25;1.40;99.90
21834;DHT22;11079;51.092;3.458;2023-03-01T01:52:04;1.40;99.90
21834;DHT22;11079;51.092;3.458;2023-03-01T01:54:53;1.40;99.90
21834;DHT22;11079;51.092;3.458;2023-03-01T01:57:24;1.40;99.90
21834;DHT22;11079;51.092;3.458;2023-03-01T01:59:57;1.50;99.90
21834;DHT22;11079;51.092;3.458;2023-03-01T02:02:24;1.50;99.90
21834;DHT22;11079;51.092;3.458;2023-03-01T02:05:06;1.50;99.90
21834;DHT22;11079;51.092;3.458;2023-03-01T02:07:38;1.40;99.90
21834;DHT22;11079;51.092;3.458;2023-03-01T02:10:05;1.50;99.90
21834;DHT22;11079;51.092;3.458;2023-03-01T02:12:38;1.30;99.90
21834;DHT22;11079;51.092;3.458;2023-03-01T02:15:04;1.30;99.90
21834;DHT22;11079;51.092;3.458;2023-03-01T02:17:31;1.30;99.90
21834;DHT22;11079;51.092;3.458;2023-03-01T02:22:51;1.20;99.90
21834;DHT22;11079;51.092;3.458;2023-03-01T02:30:24;1.10;99.90
21834;DHT22;11079;51.092;3.458;2023-03-01T02:32:52;1.30;99.90
21834;DHT22;11079;51.092;3.458;2023-03-01T02:35:20;1.10;99.90
21834;DHT22;11079;51.092;3.458;2023-03-01T02:37:47;1.20;99.90
21834;DHT22;11079;51.092;3.458;2023-03-01T02:40:16;1.10;99.90
21834;DHT22;11079;51.092;3.458;2023-03-01T02:43:00;1.10;99.90
21834;DHT22;11079;51.092;3.458;2023-03-01T02:45:27;1.10;99.90
21834;DHT22;11079;51.092;3.458;2023-03-01T02:48:14;1.00;99.90
21834;DHT22;11079;51.092;3.458;2023-03-01T02:51:01;1.00;99.90
21834;DHT22;11079;51.092;3.458;2023-03-01T02:56:04;1.00;99.90
21834;DHT22;11079;51.092;3.458;2023-03-01T02:58:43;1.00;99.90
21834;DHT22;11079;51.092;3.458;2023-03-01T03:01:20;1.00;99.90
21834;DHT22;11079;51.092;3.458;2023-03-01T03:03:46;1.00;99.90
21834;DHT22;11079;51.092;3.458;2023-03-01T03:06:17;1.00;99.90
21834;DHT22;11079;51.092;3.458;2023-03-01T03:08:43;1.00;99.90
21834;DHT22;11079;51.092;3.458;2023-03-01T03:11:09;0.90;99.90
21834;DHT22;11079;51.092;3.458;2023-03-01T03:13:35;1.00;99.90
21834;DHT22;11079;51.092;3.458;2023-03-01T03:16:02;0.90;99.90
21834;DHT22;11079;51.092;3.458;2023-03-01T03:18:28;1.10;99.90
21834;DHT22;11079;51.092;3.458;2023-03-01T03:20:53;1.00;99.90
21834;DHT22;11079;51.092;3.458;2023-03-01T03:23:23;1.00;99.90
21834;DHT22;11079;51.092;3.458;2023-03-01T03:25:50;0.90;99.90
21834;DHT22;11079;51.092;3.458;2023-03-01T03:28:17;0.90;99.90
21834;DHT22;11079;51.092;3.458;2023-03-01T03:30:43;0.80;99.90
21834;DHT22;11079;51.092;3.458;2023-03-01T03:33:12;0.80;99.90
21834;DHT22;11079;51.092;3.458;2023-03-01T03:35:48;0.80;99.90
21834;DHT22;11079;51.092;3.458;2023-03-01T03:38:17;0.80;99.90
21834;DHT22;11079;51.092;3.458;2023-03-01T03:41:02;0.80;99.90
21834;DHT22;11079;51.092;3.458;2023-03-01T03:43:29;0.70;99.90
21834;DHT22;11079;51.092;3.458;2023-03-01T03:45:57;0.70;99.90
21834;DHT22;11079;51.092;3.458;2023-03-01T03:48:24;0.60;99.90
21834;DHT22;11079;51.092;3.458;2023-03-01T03:50:52;0.70;99.90
21834;DHT22;11079;51.092;3.458;2023-03-01T03:53:21;0.60;99.90
21834;DHT22;11079;51.092;3.458;2023-03-01T03:55:48;0.80;99.90
21834;DHT22;11079;51.092;3.458;2023-03-01T03:58:15;0.80;99.90
21834;DHT22;11079;51.092;3.458;2023-03-01T04:00:43;0.70;99.90
21834;DHT22;11079;51.092;3.458;2023-03-01T04:03:11;0.70;99.90
21834;DHT22;11079;51.092;3.458;2023-03-01T04:05:39;0.80;99.90
21834;DHT22;11079;51.092;3.458;2023-03-01T04:08:05;0.80;99.90
21834;DHT22;11079;51.092;3.458;2023-03-01T04:10:40;0.80;99.90
21834;DHT22;11079;51.092;3.458;2023-03-01T04:13:08;0.80;99.90
21834;DHT22;11079;51.092;3.458;2023-03-01T04:15:35;0.90;99.90
21834;DHT22;11079;51.092;3.458;2023-03-01T04:18:01;0.90;99.90
21834;DHT22;11079;51.092;3.458;2023-03-01T04:20:29;1.00;99.90
21834;DHT22;11079;51.092;3.458;2023-03-01T04:22:59;0.80;99.90
21834;DHT22;11079;51.092;3.458;2023-03-01T04:25:26;0.80;99.90
21834;DHT22;11079;51.092;3.458;2023-03-01T04:27:53;0.70;99.90
21834;DHT22;11079;51.092;3.458;2023-03-01T04:30:22;0.60;99.90
21834;DHT22;11079;51.092;3.458;2023-03-01T04:32:50;0.70;99.90
21834;DHT22;11079;51.092;3.458;2023-03-01T04:35:19;0.70;99.90
21834;DHT22;11079;51.092;3.458;2023-03-01T04:37:44;0.70;99.90
21834;DHT22;11079;51.092;3.458;2023-03-01T04:40:11;0.50;99.90
21834;DHT22;11079;51.092;3.458;2023-03-01T04:42:41;0.50;99.90
21834;DHT22;11079;51.092;3.458;2023-03-01T04:45:10;0.60;99.90
21834;DHT22;11079;51.092;3.458;2023-03-01T04:47:39;0.50;99.90
21834;DHT22;11079;51.092;3.458;2023-03-01T04:50:07;0.60;99.90
21834;DHT22;11079;51.092;3.458;2023-03-01T04:52:35;0.60;99.90
21834;DHT22;11079;51.092;3.458;2023-03-01T04:55:02;0.70;99.90
21834;DHT22;11079;51.092;3.458;2023-03-01T04:57:29;0.60;99.90
21834;DHT22;11079;51.092;3.458;2023-03-01T04:59:54;0.60;99.90
21834;DHT22;11079;51.092;3.458;2023-03-01T05:02:20;0.60;99.90
21834;DHT22;11079;51.092;3.458;2023-03-01T05:04:46;0.60;99.90
21834;DHT22;11079;51.092;3.458;2023-03-01T05:07:13;0.50;99.90
21834;DHT22;11079;51.092;3.458;2023-03-01T05:09:45;0.40;99.90
21834;DHT22;11079;51.092;3.458;2023-03-01T05:12:12;0.40;99.90
21834;DHT22;11079;51.092;3.458;2023-03-01T05:14:38;0.50;99.90
21834;DHT22;11079;51.092;3.458;2023-03-01T05:17:06;0.40;99.90
21834;DHT22;11079;51.092;3.458;2023-03-01T05:19:32;0.40;99.90
21834;DHT22;11079;51.092;3.458;2023-03-01T05:21:58;0.30;99.90
21834;DHT22;11079;51.092;3.458;2023-03-01T05:24:28;0.40;99.90
21834;DHT22;11079;51.092;3.458;2023-03-01T05:26:55;0.50;99.90
21834;DHT22;11079;51.092;3.458;2023-03-01T05:29:25;0.40;99.90
21834;DHT22;11079;51.092;3.458;2023-03-01T05:31:56;0.30;99.90
21834;DHT22;11079;51.092;3.458;2023-03-01T05:34:24;0.30;99.90
21834;DHT22;11079;51.092;3.458;2023-03-01T05:36:51;0.50;99.90
21834;DHT22;11079;51.092;3.458;2023-03-01T05:39:23;0.50;99.90
21834;DHT22;11079;51.092;3.458;2023-03-01T05:41:57;0.30;99.90
21834;DHT22;11079;51.092;3.458;2023-03-01T05:44:28;0.40;99.90
21834;DHT22;11079;51.092;3.458;2023-03-01T05:46:54;0.20;99.90
21834;DHT22;11079;51.092;3.458;2023-03-01T05:49:23;0.20;99.90
21834;DHT22;11079;51.092;3.458;2023-03-01T05:51:53;0.10;99.90
21834;DHT22;11079;51.092;3.458;2023-03-01T05:54:24;0.00;99.90
21834;DHT22;11079;51.092;3.458;2023-03-01T05:56:50;0.10;99.90
21834;DHT22;11079;51.092;3.458;2023-03-01T05:59:16;0.00;99.90
21834;DHT22;11079;51.092;3.458;2023-03-01T06:01:44;0.00;99.90
21834;DHT22;11079;51.092;3.458;2023-03-01T06:04:13;0.10;99.90
21834;DHT22;11079;51.092;3.458;2023-03-01T06:06:38;0.00;99.90
21834;DHT22;11079;51.092;3.458;2023-03-01T06:09:05;0.10;99.90
21834;DHT22;11079;51.092;3.458;2023-03-01T06:11:34;0.00;99.90
21834;DHT22;11079;51.092;3.458;2023-03-01T06:14:03;0.00;99.90
21834;DHT22;11079;51.092;3.458;2023-03-01T06:16:33;0.00;99.90
21834;DHT22;11079;51.092;3.458;2023-03-01T06:18:58;0.00;99.90
21834;DHT22;11079;51.092;3.458;2023-03-01T06:21:25;0.20;99.90
21834;DHT22;11079;51.092;3.458;2023-03-01T06:23:53;0.10;99.90
21834;DHT22;11079;51.092;3.458;2023-03-01T06:26:19;0.10;99.90
21834;DHT22;11079;51.092;3.458;2023-03-01T06:28:45;0.20;99.90
21834;DHT22;11079;51.092;3.458;2023-03-01T06:31:12;0.20;99.90
21834;DHT22;11079;51.092;3.458;2023-03-01T06:33:42;0.10;99.90
21834;DHT22;11079;51.092;3.458;2023-03-01T06:36:10;0.10;99.90
21834;DHT22;11079;51.092;3.458;2023-03-01T06:38:36;0.10;99.90
21834;DHT22;11079;51.092;3.458;2023-03-01T06:41:01;0.00;99.90
21834;DHT22;11079;51.092;3.458;2023-03-01T06:43:27;0.20;99.90
21834;DHT22;11079;51.092;3.458;2023-03-01T06:45:53;0.20;99.90
21834;DHT22;11079;51.092;3.458;2023-03-01T06:48:18;0.30;99.90
21834;DHT22;11079;51.092;3.458;2023-03-01T06:50:44;0.30;99.90
21834;DHT22;11079;51.092;3.458;2023-03-01T06:53:10;0.50;99.90
21834;DHT22;11079;51.092;3.458;2023-03-01T06:55:37;1.00;99.90
21834;DHT22;11079;51.092;3.458;2023-03-01T06:58:04;1.60;99.90
21834;DHT22;11079;51.092;3.458;2023-03-01T07:00:41;2.30;99.90
21834;DHT22;11079;51.092;3.458;2023-03-01T07:03:09;3.20;99.90
21834;DHT22;11079;51.092;3.458;2023-03-01T07:05:37;4.10;99.90
21834;DHT22;11079;51.092;3.458;2023-03-01T07:08:09;5.10;99.90
21834;DHT22;11079;51.092;3.458;2023-03-01T07:10:43;6.20;99.90
21834;DHT22;11079;51.092;3.458;2023-03-01T07:13:24;7.40;99.90
21834;DHT22;11079;51.092;3.458;2023-03-01T07:37:39;16.90;99.90
21834;DHT22;11079;51.092;3.458;2023-03-01T07:40:24;17.60;99.90
21834;DHT22;11079;51.092;3.458;2023-03-01T07:43:20;18.10;99.90
21834;DHT22;11079;51.092;3.458;2023-03-01T07:46:04;18.30;99.90
21834;DHT22;11079;51.092;3.458;2023-03-01T07:49:16;18.50;97.80
21834;DHT22;11079;51.092;3.458;2023-03-01T07:52:49;18.40;95.00
21834;DHT22;11079;51.092;3.458;2023-03-01T14:29:22;14.70;80.00
21834;DHT22;11079;51.092;3.458;2023-03-01T14:32:43;14.30;79.90
21834;DHT22;11079;51.092;3.458;2023-03-01T14:38:39;14.20;81.80
21834;DHT22;11079;51.092;3.458;2023-03-01T14:41:31;14.10;79.70
21834;DHT22;11079;51.092;3.458;2023-03-01T14:44:34;14.60;80.30
21834;DHT22;11079;51.092;3.458;2023-03-01T14:47:28;14.40;80.90
21834;DHT22;11079;51.092;3.458;2023-03-01T14:50:08;13.10;80.20
21834;DHT22;11079;51.092;3.458;2023-03-01T14:53:01;12.90;84.00
21834;DHT22;11079;51.092;3.458;2023-03-01T14:55:37;12.50;84.60
21834;DHT22;11079;51.092;3.458;2023-03-01T14:58:12;12.30;85.70
21834;DHT22;11079;51.092;3.458;2023-03-01T15:01:01;12.70;85.60
21834;DHT22;11079;51.092;3.458;2023-03-01T15:03:53;12.80;84.50
21834;DHT22;11079;51.092;3.458;2023-03-01T15:06:33;13.20;85.80
21834;DHT22;11079;51.092;3.458;2023-03-01T15:09:06;13.40;82.90
21834;DHT22;11079;51.092;3.458;2023-03-01T15:15:43;12.20;84.50
21834;DHT22;11079;51.092;3.458;2023-03-01T15:18:22;12.10;87.30
21834;DHT22;11079;51.092;3.458;2023-03-01T15:21:33;12.30;87.70
21834;DHT22;11079;51.092;3.458;2023-03-01T15:27:12;12.40;86.40
21834;DHT22;11079;51.092;3.458;2023-03-01T15:29:55;12.50;86.20
21834;DHT22;11079;51.092;3.458;2023-03-01T15:32:36;12.10;87.00
21834;DHT22;11079;51.092;3.458;2023-03-01T15:38:35;11.90;88.70
21834;DHT22;11079;51.092;3.458;2023-03-01T15:41:05;11.60;89.80
21834;DHT22;11079;51.092;3.458;2023-03-01T15:43:51;11.70;90.40
21834;DHT22;11079;51.092;3.458;2023-03-01T15:48:49;10.90;91.30
21834;DHT22;11079;51.092;3.458;2023-03-01T15:51:21;10.30;92.40
21834;DHT22;11079;51.092;3.458;2023-03-01T15:53:51;10.00;93.60
21834;DHT22;11079;51.092;3.458;2023-03-01T15:56:21;9.70;94.20
21834;DHT22;11079;51.092;3.458;2023-03-01T15:58:47;9.30;95.30
21834;DHT22;11079;51.092;3.458;2023-03-01T16:01:16;9.10;96.80
21834;DHT22;11079;51.092;3.458;2023-03-01T16:03:42;8.70;97.70
21834;DHT22;11079;51.092;3.458;2023-03-01T16:06:18;8.50;99.20
21834;DHT22;11079;51.092;3.458;2023-03-01T16:08:46;8.60;99.90
21834;DHT22;11079;51.092;3.458;2023-03-01T16:11:18;8.50;99.90
21834;DHT22;11079;51.092;3.458;2023-03-01T16:13:44;8.30;99.90
21834;DHT22;11079;51.092;3.458;2023-03-01T16:16:14;8.30;99.90
21834;DHT22;11079;51.092;3.458;2023-03-01T16:18:43;8.10;99.90
21834;DHT22;11079;51.092;3.458;2023-03-01T16:21:14;8.00;99.90
21834;DHT22;11079;51.092;3.458;2023-03-01T16:23:42;8.00;99.90
21834;DHT22;11079;51.092;3.458;2023-03-01T16:26:16;8.00;99.90
21834;DHT22;11079;51.092;3.458;2023-03-01T16:28:45;7.90;99.90
21834;DHT22;11079;51.092;3.458;2023-03-01T16:31:17;7.70;99.90
21834;DHT22;11079;51.092;3.458;2023-03-01T16:33:44;7.60;99.90
21834;DHT22;11079;51.092;3.458;2023-03-01T16:36:19;7.60;99.90
21834;DHT22;11079;51.092;3.458;2023-03-01T16:38:51;7.80;99.90
21834;DHT22;11079;51.092;3.458;2023-03-01T16:41:42;7.70;99.90
21834;DHT22;11079;51.092;3.458;2023-03-01T16:44:08;7.50;99.90
21834;DHT22;11079;51.092;3.458;2023-03-01T16:46:42;7.50;99.90
21834;DHT22;11079;51.092;3.458;2023-03-01T16:49:26;7.40;99.90
21834;DHT22;11079;51.092;3.458;2023-03-01T16:52:00;7.40;99.90
21834;DHT22;11079;51.092;3.458;2023-03-01T16:55:07;7.30;99.90
21834;DHT22;11079;51.092;3.458;2023-03-01T16:58:12;7.30;99.90
21834;DHT22;11079;51.092;3.458;2023-03-01T17:00:41;7.10;99.90
21834;DHT22;11079;51.092;3.458;2023-03-01T17:03:11;7.20;99.90
21834;DHT22;11079;51.092;3.458;2023-03-01T17:05:40;7.10;99.90
21834;DHT22;11079;51.092;3.458;2023-03-01T17:08:08;7.00;99.90
21834;DHT22;11079;51.092;3.458;2023-03-01T17:10:37;7.10;99.90
21834;DHT22;11079;51.092;3.458;2023-03-01T17:13:10;7.10;99.90
21834;DHT22;11079;51.092;3.458;2023-03-01T17:15:44;7.00;99.90
21834;DHT22;11079;51.092;3.458;2023-03-01T17:18:15;7.00;99.90
21834;DHT22;11079;51.092;3.458;2023-03-01T17:20:44;7.10;99.90
21834;DHT22;11079;51.092;3.458;2023-03-01T17:23:09;7.20;99.90
21834;DHT22;11079;51.092;3.458;2023-03-01T17:25:48;7.10;99.90
21834;DHT22;11079;51.092;3.458;2023-03-01T17:28:14;6.90;99.90
21834;DHT22;11079;51.092;3.458;2023-03-01T17:34:06;6.90;99.90
21834;DHT22;11079;51.092;3.458;2023-03-01T17:36:59;6.80;99.90
21834;DHT22;11079;51.092;3.458;2023-03-01T17:39:35;6.60;99.90
21834;DHT22;11079;51.092;3.458;2023-03-01T17:45:25;6.60;99.90
21834;DHT22;11079;51.092;3.458;2023-03-01T17:47:51;6.60;99.90
21834;DHT22;11079;51.092;3.458;2023-03-01T17:50:17;6.60;99.90
21834;DHT22;11079;51.092;3.458;2023-03-01T17:52:42;6.50;99.90
21834;DHT22;11079;51.092;3.458;2023-03-01T17:55:09;6.40;99.90
21834;DHT22;11079;51.092;3.458;2023-03-01T17:57:38;6.20;99.90
21834;DHT22;11079;51.092;3.458;2023-03-01T18:00:05;6.20;99.90
21834;DHT22;11079;51.092;3.458;2023-03-01T18:02:31;6.10;99.90
21834;DHT22;11079;51.092;3.458;2023-03-01T18:04:57;6.20;99.90
21834;DHT22;11079;51.092;3.458;2023-03-01T18:07:26;6.10;99.90
21834;DHT22;11079;51.092;3.458;2023-03-01T18:09:52;6.10;99.90
21834;DHT22;11079;51.092;3.458;2023-03-01T18:12:18;6.20;99.90
21834;DHT22;11079;51.092;3.458;2023-03-01T18:14:43;6.20;99.90
21834;DHT22;11079;51.092;3.458;2023-03-01T18:17:09;6.10;99.90
21834;DHT22;11079;51.092;3.458;2023-03-01T18:19:40;5.90;99.90
21834;DHT22;11079;51.092;3.458;2023-03-01T18:22:08;5.90;99.90
21834;DHT22;11079;51.092;3.458;2023-03-01T18:24:35;5.80;99.90
21834;DHT22;11079;51.092;3.458;2023-03-01T18:27:01;5.70;99.90
21834;DHT22;11079;51.092;3.458;2023-03-01T18:29:27;5.70;99.90
21834;DHT22;11079;51.092;3.458;2023-03-01T18:31:53;5.70;99.90
21834;DHT22;11079;51.092;3.458;2023-03-01T18:34:19;5.70;99.90
21834;DHT22;11079;51.092;3.458;2023-03-01T18:36:44;5.70;99.90
21834;DHT22;11079;51.092;3.458;2023-03-01T18:39:10;5.90;99.90
21834;DHT22;11079;51.092;3.458;2023-03-01T18:41:36;5.70;99.90
21834;DHT22;11079;51.092;3.458;2023-03-01T18:44:03;5.70;99.90
21834;DHT22;11079;51.092;3.458;2023-03-01T18:46:29;5.60;99.90
21834;DHT22;11079;51.092;3.458;2023-03-01T18:48:55;5.30;99.90
21834;DHT22;11079;51.092;3.458;2023-03-01T18:51:25;5.30;99.90
21834;DHT22;11079;51.092;3.458;2023-03-01T18:53:51;5.20;99.90
21834;DHT22;11079;51.092;3.458;2023-03-01T18:56:17;5.20;99.90
21834;DHT22;11079;51.092;3.458;2023-03-01T18:58:43;5.20;99.90
21834;DHT22;11079;51.092;3.458;2023-03-01T19:01:20;5.20;99.90
21834;DHT22;11079;51.092;3.458;2023-03-01T19:03:47;5.20;99.90
21834;DHT22;11079;51.092;3.458;2023-03-01T19:06:14;5.10;99.90
21834;DHT22;11079;51.092;3.458;2023-03-01T19:08:39;5.10;99.90
21834;DHT22;11079;51.092;3.458;2023-03-01T19:11:07;5.00;99.90
21834;DHT22;11079;51.092;3.458;2023-03-01T19:13:34;5.10;99.90
21834;DHT22;11079;51.092;3.458;2023-03-01T19:16:13;5.10;99.90
21834;DHT22;11079;51.092;3.458;2023-03-01T19:18:40;5.00;99.90
21834;DHT22;11079;51.092;3.458;2023-03-01T19:21:07;5.10;99.90
21834;DHT22;11079;51.092;3.458;2023-03-01T19:23:34;5.00;99.90
21834;DHT22;11079;51.092;3.458;2023-03-01T19:26:06;5.00;99.90
21834;DHT22;11079;51.092;3.458;2023-03-01T19:28:33;5.00;99.90
21834;DHT22;11079;51.092;3.458;2023-03-01T19:31:01;5.00;99.90
21834;DHT22;11079;51.092;3.458;2023-03-01T19:33:29;5.00;99.90
21834;DHT22;11079;51.092;3.458;2023-03-01T19:35:55;4.80;99.90
21834;DHT22;11079;51.092;3.458;2023-03-01T19:38:21;4.80;99.90
21834;DHT22;11079;51.092;3.458;2023-03-01T19:40:47;4.70;99.90
21834;DHT22;11079;51.092;3.458;2023-03-01T19:43:12;4.70;99.90
21834;DHT22;11079;51.092;3.458;2023-03-01T19:45:38;4.70;99.90
21834;DHT22;11079;51.092;3.458;2023-03-01T19:48:04;4.70;99.90
21834;DHT22;11079;51.092;3.458;2023-03-01T19:50:30;4.70;99.90
21834;DHT22;11079;51.092;3.458;2023-03-01T19:52:55;4.80;99.90
21834;DHT22;11079;51.092;3.458;2023-03-01T19:55:21;4.70;99.90
21834;DHT22;11079;51.092;3.458;2023-03-01T19:57:47;4.70;99.90
21834;DHT22;11079;51.092;3.458;2023-03-01T20:00:12;4.60;99.90
21834;DHT22;11079;51.092;3.458;2023-03-01T20:02:39;4.60;99.90
21834;DHT22;11079;51.092;3.458;2023-03-01T20:05:05;4.60;99.90
21834;DHT22;11079;51.092;3.458;2023-03-01T20:07:31;4.30;99.90
21834;DHT22;11079;51.092;3.458;2023-03-01T20:09:56;4.10;99.90
21834;DHT22;11079;51.092;3.458;2023-03-01T20:12:22;4.00;99.90
21834;DHT22;11079;51.092;3.458;2023-03-01T20:14:47;4.10;99.90
21834;DHT22;11079;51.092;3.458;2023-03-01T20:17:16;4.20;99.90
21834;DHT22;11079;51.092;3.458;2023-03-01T20:19:41;4.20;99.90
21834;DHT22;11079;51.092;3.458;2023-03-01T20:22:07;4.10;99.90
21834;DHT22;11079;51.092;3.458;2023-03-01T20:24:33;4.10;99.90
21834;DHT22;11079;51.092;3.458;2023-03-01T20:26:59;4.00;99.90
21834;DHT22;11079;51.092;3.458;2023-03-01T20:29:25;4.00;99.90
21834;DHT22;11079;51.092;3.458;2023-03-01T20:31:51;4.00;99.90
21834;DHT22;11079;51.092;3.458;2023-03-01T20:34:17;4.00;99.90
21834;DHT22;11079;51.092;3.458;2023-03-01T20:36:43;4.00;99.90
21834;DHT22;11079;51.092;3.458;2023-03-01T20:39:09;4.10;99.90
21834;DHT22;11079;51.092;3.458;2023-03-01T20:41:37;4.00;99.90
21834;DHT22;11079;51.092;3.458;2023-03-01T20:44:02;4.00;99.90
21834;DHT22;11079;51.092;3.458;2023-03-01T20:46:31;3.90;99.90
21834;DHT22;11079;51.092;3.458;2023-03-01T20:48:57;3.90;99.90
21834;DHT22;11079;51.092;3.458;2023-03-01T20:51:23;3.80;99.90
21834;DHT22;11079;51.092;3.458;2023-03-01T20:53:49;3.70;99.90
21834;DHT22;11079;51.092;3.458;2023-03-01T20:56:16;3.70;99.90
21834;DHT22;11079;51.092;3.458;2023-03-01T20:58:42;3.70;99.90
21834;DHT22;11079;51.092;3.458;2023-03-01T21:01:10;3.70;99.90
21834;DHT22;11079;51.092;3.458;2023-03-01T21:03:36;3.60;99.90
21834;DHT22;11079;51.092;3.458;2023-03-01T21:06:03;3.70;99.90
21834;DHT22;11079;51.092;3.458;2023-03-01T21:08:30;3.70;99.90
21834;DHT22;11079;51.092;3.458;2023-03-01T21:10:56;3.70;99.90
21834;DHT22;11079;51.092;3.458;2023-03-01T21:13:23;3.50;99.90
21834;DHT22;11079;51.092;3.458;2023-03-01T21:16:15;3.50;99.90
21834;DHT22;11079;51.092;3.458;2023-03-01T21:18:45;3.40;99.90
21834;DHT22;11079;51.092;3.458;2023-03-01T21:21:16;3.50;99.90
21834;DHT22;11079;51.092;3.458;2023-03-01T21:23:43;3.40;99.90
21834;DHT22;11079;51.092;3.458;2023-03-01T21:26:20;3.40;99.90
21834;DHT22;11079;51.092;3.458;2023-03-01T21:28:47;3.40;99.90
21834;DHT22;11079;51.092;3.458;2023-03-01T21:31:20;3.30;99.90
21834;DHT22;11079;51.092;3.458;2023-03-01T21:33:53;3.10;99.90
21834;DHT22;11079;51.092;3.458;2023-03-01T21:36:20;3.20;99.90
21834;DHT22;11079;51.092;3.458;2023-03-01T21:38:47;3.20;99.90
21834;DHT22;11079;51.092;3.458;2023-03-01T21:41:33;3.30;99.90
21834;DHT22;11079;51.092;3.458;2023-03-01T21:44:01;3.30;99.90
21834;DHT22;11079;51.092;3.458;2023-03-01T21:46:29;3.40;99.90
21834;DHT22;11079;51.092;3.458;2023-03-01T21:48:55;3.50;99.90
21834;DHT22;11079;51.092;3.458;2023-03-01T21:51:24;3.30;99.90
21834;DHT22;11079;51.092;3.458;2023-03-01T21:53:50;3.10;99.90
21834;DHT22;11079;51.092;3.458;2023-03-01T21:56:18;3.10;99.90
21834;DHT22;11079;51.092;3.458;2023-03-01T21:58:44;3.30;99.90
21834;DHT22;11079;51.092;3.458;2023-03-01T22:01:12;3.40;99.90
21834;DHT22;11079;51.092;3.458;2023-03-01T22:03:39;3.30;99.90
21834;DHT22;11079;51.092;3.458;2023-03-01T22:06:14;3.30;99.90
21834;DHT22;11079;51.092;3.458;2023-03-01T22:12:17;3.20;99.90
21834;DHT22;11079;51.092;3.458;2023-03-01T22:14:43;3.20;99.90
21834;DHT22;11079;51.092;3.458;2023-03-01T22:17:08;3.10;99.90
21834;DHT22;11079;51.092;3.458;2023-03-01T22:19:34;3.00;99.90
21834;DHT22;11079;51.092;3.458;2023-03-01T22:21:59;3.00;99.90
21834;DHT22;11079;51.092;3.458;2023-03-01T22:24:25;3.00;99.90
21834;DHT22;11079;51.092;3.458;2023-03-01T22:26:52;2.90;99.90
21834;DHT22;11079;51.092;3.458;2023-03-01T22:29:37;3.20;99.90
21834;DHT22;11079;51.092;3.458;2023-03-01T22:32:03;3.30;99.90
21834;DHT22;11079;51.092;3.458;2023-03-01T22:34:29;3.00;99.90
21834;DHT22;11079;51.092;3.458;2023-03-01T22:36:55;2.90;99.90
21834;DHT22;11079;51.092;3.458;2023-03-01T22:39:20;2.90;99.90
21834;DHT22;11079;51.092;3.458;2023-03-01T22:41:47;3.00;99.90
21834;DHT22;11079;51.092;3.458;2023-03-01T22:44:16;3.20;99.90
21834;DHT22;11079;51.092;3.458;2023-03-01T22:46:44;3.30;99.90
21834;DHT22;11079;51.092;3.458;2023-03-01T22:49:10;3.30;99.90
21834;DHT22;11079;51.092;3.458;2023-03-01T22:51:37;3.40;99.90
21834;DHT22;11079;51.092;3.458;2023-03-01T22:54:03;3.70;99.90
21834;DHT22;11079;51.092;3.458;2023-03-01T22:56:32;3.60;99.90
21834;DHT22;11079;51.092;3.458;2023-03-01T22:58:59;3.50;99.90
21834;DHT22;11079;51.092;3.458;2023-03-01T23:01:26;3.50;99.90
21834;DHT22;11079;51.092;3.458;2023-03-01T23:03:52;3.40;99.90
21834;DHT22;11079;51.092;3.458;2023-03-01T23:06:20;3.40;99.90
21834;DHT22;11079;51.092;3.458;2023-03-01T23:08:53;3.30;99.90
21834;DHT22;11079;51.092;3.458;2023-03-01T23:11:20;3.40;99.90
21834;DHT22;11079;51.092;3.458;2023-03-01T23:13:46;3.20;99.90
21834;DHT22;11079;51.092;3.458;2023-03-01T23:16:12;3.40;99.90
21834;DHT22;11079;51.092;3.458;2023-03-01T23:18:39;3.30;99.90
21834;DHT22;11079;51.092;3.458;2023-03-01T23:21:14;3.20;99.90
21834;DHT22;11079;51.092;3.458;2023-03-01T23:23:40;3.30;99.90
21834;DHT22;11079;51.092;3.458;2023-03-01T23:26:07;3.10;99.90
21834;DHT22;11079;51.092;3.458;2023-03-01T23:28:35;2.80;99.90
21834;DHT22;11079;51.092;3.458;2023-03-01T23:31:06;3.10;99.90
21834;DHT22;11079;51.092;3.458;2023-03-01T23:33:32;3.30;99.90
21834;DHT22;11079;51.092;3.458;2023-03-01T23:36:18;3.10;99.90
21834;DHT22;11079;51.092;3.458;2023-03-01T23:38:46;3.10;99.90